createdAt,value
2019-03-05T00:00:43.431Z,1.20
2019-03-05T00:03:13.457Z,1.60
2019-03-05T00:05:43.005Z,1.40
2019-03-05T00:08:12.481Z,1.73
2019-03-05T00:10:42.165Z,1.10
2019-03-05T00:13:11.729Z,1.40
2019-03-05T00:15:41.727Z,1.63
2019-03-05T00:18:11.235Z,1.23
2019-03-05T00:20:40.659Z,1.53
2019-03-05T00:23:10.190Z,1.57
2019-03-05T00:25:40.049Z,1.57
2019-03-05T00:28:35.598Z,1.43
2019-03-05T00:31:09.853Z,1.70
2019-03-05T00:34:09.864Z,1.77
2019-03-05T00:36:50.073Z,2.13
2019-03-05T00:39:42.401Z,1.40
2019-03-05T00:42:59.148Z,1.73
2019-03-05T00:45:51.068Z,1.40
2019-03-05T00:48:58.638Z,1.43
2019-03-05T00:51:38.324Z,1.40
2019-03-05T00:54:23.815Z,1.37
2019-03-05T00:57:21.844Z,1.50
2019-03-05T01:00:01.921Z,1.77
2019-03-05T01:02:42.012Z,1.30
2019-03-05T01:05:32.935Z,1.13
2019-03-05T01:08:02.426Z,1.23
2019-03-05T01:10:32.016Z,1.10
2019-03-05T01:13:01.642Z,1.20
2019-03-05T01:15:31.123Z,1.00
2019-03-05T01:18:00.597Z,1.20
2019-03-05T01:20:30.114Z,1.23
2019-03-05T01:22:59.639Z,1.20
2019-03-05T01:25:34.496Z,1.23
2019-03-05T01:28:04.066Z,1.33
2019-03-05T01:31:00.782Z,1.40
2019-03-05T01:33:31.829Z,1.97
2019-03-05T01:36:22.302Z,1.23
2019-03-05T01:39:05.403Z,1.40
2019-03-05T01:41:34.927Z,1.10
2019-03-05T01:44:04.394Z,1.47
2019-03-05T01:46:33.898Z,1.30
2019-03-05T01:49:03.411Z,1.47
2019-03-05T01:51:32.876Z,1.10
2019-03-05T01:54:02.391Z,1.20
2019-03-05T01:56:31.869Z,1.10
2019-03-05T01:59:01.349Z,0.80
2019-03-05T02:01:30.907Z,1.20
2019-03-05T02:04:00.491Z,1.30
2019-03-05T02:06:29.999Z,1.20
2019-03-05T02:08:59.520Z,1.20
2019-03-05T02:11:28.996Z,1.10
2019-03-05T02:13:58.525Z,1.37
2019-03-05T02:16:28.023Z,1.40
2019-03-05T02:19:36.769Z,1.40
2019-03-05T02:22:13.749Z,1.57
2019-03-05T02:25:02.695Z,1.60
2019-03-05T02:27:56.275Z,1.97
2019-03-05T02:31:11.710Z,2.03
2019-03-05T02:33:54.939Z,1.50
2019-03-05T02:36:59.450Z,2.00
2019-03-05T02:39:45.692Z,1.60
2019-03-05T02:42:38.247Z,1.57
2019-03-05T02:45:32.348Z,1.40
2019-03-05T02:48:21.063Z,1.30
2019-03-05T02:51:31.914Z,1.90
2019-03-05T02:54:33.890Z,2.30
2019-03-05T02:57:07.865Z,1.70
2019-03-05T02:59:38.092Z,1.63
2019-03-05T03:02:15.569Z,1.57
2019-03-05T03:04:46.732Z,1.37
2019-03-05T03:07:16.608Z,1.47
2019-03-05T03:09:53.559Z,1.27
2019-03-05T03:12:23.076Z,2.20
2019-03-05T03:14:52.559Z,1.03
2019-03-05T03:17:22.127Z,1.73
2019-03-05T03:19:51.617Z,1.80
2019-03-05T03:22:21.089Z,1.60
2019-03-05T03:24:50.593Z,1.33
2019-03-05T03:27:20.069Z,1.60
2019-03-05T03:29:49.556Z,2.20
2019-03-05T03:32:19.049Z,2.10
2019-03-05T03:34:48.525Z,1.40
2019-03-05T03:37:18.107Z,1.63
2019-03-05T03:39:47.606Z,1.70
2019-03-05T03:42:17.078Z,1.60
2019-03-05T03:44:46.566Z,1.63
2019-03-05T03:47:16.079Z,1.30
2019-03-05T03:49:45.556Z,1.90
2019-03-05T03:52:15.059Z,2.10
2019-03-05T03:54:44.576Z,1.83
2019-03-05T03:57:14.112Z,1.77
2019-03-05T03:59:43.626Z,1.40
2019-03-05T04:02:13.184Z,1.80
2019-03-05T04:04:42.693Z,1.50
2019-03-05T04:07:12.186Z,1.77
2019-03-05T04:09:41.756Z,1.20
2019-03-05T04:12:11.243Z,1.40
2019-03-05T04:14:40.724Z,1.23
2019-03-05T04:17:11.888Z,1.50
2019-03-05T04:19:41.385Z,1.17
2019-03-05T04:22:10.856Z,1.77
2019-03-05T04:24:40.363Z,1.10
2019-03-05T04:27:09.848Z,1.80
2019-03-05T04:29:39.336Z,1.70
2019-03-05T04:32:08.839Z,1.27
2019-03-05T04:34:38.338Z,1.13
2019-03-05T04:37:07.822Z,1.10
2019-03-05T04:39:37.355Z,1.30
2019-03-05T04:42:06.860Z,1.17
2019-03-05T04:44:37.918Z,1.13
2019-03-05T04:47:07.432Z,1.00
2019-03-05T04:49:38.496Z,1.90
2019-03-05T04:52:09.566Z,1.20
2019-03-05T04:54:39.087Z,1.30
2019-03-05T04:57:08.570Z,1.23
2019-03-05T04:59:38.057Z,1.60
2019-03-05T05:02:07.564Z,1.80
2019-03-05T05:04:37.061Z,1.30
2019-03-05T05:07:06.529Z,1.60
2019-03-05T05:09:37.907Z,1.70
2019-03-05T05:12:07.256Z,1.63
2019-03-05T05:14:36.746Z,1.90
2019-03-05T05:17:06.268Z,1.50
2019-03-05T05:19:35.841Z,1.83
2019-03-05T05:22:05.238Z,1.63
2019-03-05T05:24:34.751Z,1.63
2019-03-05T05:27:04.250Z,0.90
2019-03-05T05:29:33.747Z,1.20
2019-03-05T05:32:03.264Z,1.30
2019-03-05T05:34:32.689Z,1.53
2019-03-05T05:37:02.166Z,1.90
2019-03-05T05:40:27.659Z,1.47
2019-03-05T05:42:57.242Z,2.00
2019-03-05T05:45:34.117Z,1.83
2019-03-05T05:48:03.611Z,2.87
2019-03-05T05:50:33.099Z,3.77
2019-03-05T05:53:02.604Z,2.10
2019-03-05T05:55:32.104Z,2.60
2019-03-05T05:58:01.631Z,2.40
2019-03-05T06:00:31.329Z,2.60
2019-03-05T06:03:00.822Z,2.40
2019-03-05T06:05:30.311Z,2.40
2019-03-05T06:07:59.800Z,2.80
2019-03-05T06:10:29.404Z,3.67
2019-03-05T06:12:58.981Z,2.70
2019-03-05T06:15:28.495Z,2.80
2019-03-05T06:17:57.984Z,3.00
2019-03-05T06:20:27.471Z,3.20
2019-03-05T06:22:56.992Z,3.60
2019-03-05T06:25:26.478Z,3.50
2019-03-05T06:27:55.961Z,3.10
2019-03-05T06:30:32.433Z,2.83
2019-03-05T06:33:01.930Z,2.73
2019-03-05T06:35:31.405Z,3.03
2019-03-05T06:38:00.934Z,2.90
2019-03-05T06:40:32.312Z,3.10
2019-03-05T06:43:01.807Z,2.80
2019-03-05T06:45:31.327Z,3.00
2019-03-05T06:48:00.801Z,3.07
2019-03-05T06:50:30.482Z,2.67
2019-03-05T06:52:59.985Z,2.60
2019-03-05T06:55:29.467Z,2.93
2019-03-05T06:57:58.951Z,2.37
2019-03-05T07:00:40.483Z,3.27
2019-03-05T07:03:10.782Z,3.00
2019-03-05T07:06:35.252Z,3.50
2019-03-05T07:09:18.436Z,3.20
2019-03-05T07:12:04.409Z,3.00
2019-03-05T07:15:18.928Z,4.00
2019-03-05T07:18:08.344Z,3.63
2019-03-05T07:21:18.495Z,3.37
2019-03-05T07:24:04.758Z,2.90
2019-03-05T07:26:34.234Z,3.30
2019-03-05T07:29:03.714Z,3.07
2019-03-05T07:31:33.222Z,2.30
2019-03-05T07:34:03.112Z,1.90
2019-03-05T07:36:32.588Z,2.07
2019-03-05T07:39:02.107Z,2.50
2019-03-05T07:41:31.589Z,2.80
2019-03-05T07:44:01.078Z,3.10
2019-03-05T07:46:30.579Z,2.73
2019-03-05T07:49:00.062Z,2.33
2019-03-05T07:51:29.546Z,2.47
2019-03-05T07:53:59.055Z,2.67
2019-03-05T07:56:28.551Z,2.37
2019-03-05T07:58:58.013Z,2.80
2019-03-05T08:01:27.543Z,2.80
2019-03-05T08:03:57.020Z,3.07
2019-03-05T08:06:26.497Z,3.57
2019-03-05T08:09:34.917Z,3.23
2019-03-05T08:12:29.788Z,3.90
2019-03-05T08:15:15.401Z,5.03
2019-03-05T08:17:46.883Z,3.87
2019-03-05T08:20:16.095Z,3.37
2019-03-05T08:22:45.601Z,3.10
2019-03-05T08:25:15.090Z,4.20
2019-03-05T08:27:44.584Z,3.90
2019-03-05T08:30:17.544Z,3.40
2019-03-05T08:32:47.030Z,3.10
2019-03-05T08:35:16.445Z,3.17
2019-03-05T08:37:45.874Z,2.63
2019-03-05T08:40:16.592Z,3.37
2019-03-05T08:42:46.113Z,2.67
2019-03-05T08:45:16.134Z,3.13
2019-03-05T08:47:45.630Z,2.43
2019-03-05T08:50:16.676Z,2.93
2019-03-05T08:52:46.091Z,2.80
2019-03-05T08:55:15.588Z,4.00
2019-03-05T08:57:45.056Z,2.80
2019-03-05T09:00:20.009Z,3.07
2019-03-05T09:02:49.567Z,3.10
2019-03-05T09:05:20.048Z,2.90
2019-03-05T09:07:49.552Z,2.87
2019-03-05T09:10:22.445Z,2.93
2019-03-05T09:12:51.915Z,3.17
2019-03-05T09:15:21.428Z,3.23
2019-03-05T09:17:50.912Z,3.50
2019-03-05T09:20:20.898Z,2.50
2019-03-05T09:22:50.501Z,3.03
2019-03-05T09:25:20.283Z,2.30
2019-03-05T09:27:49.778Z,2.33
2019-03-05T09:30:24.822Z,3.07
2019-03-05T09:32:54.314Z,1.90
2019-03-05T09:35:23.797Z,2.00
2019-03-05T09:37:53.321Z,3.00
2019-03-05T09:40:29.380Z,2.80
2019-03-05T09:42:58.893Z,2.20
2019-03-05T09:45:28.511Z,3.50
2019-03-05T09:47:58.038Z,2.30
2019-03-05T09:50:27.544Z,2.17
2019-03-05T09:52:57.031Z,2.57
2019-03-05T09:55:27.010Z,1.87
2019-03-05T09:58:07.696Z,2.27
2019-03-05T10:00:29.474Z,1.67
2019-03-05T10:02:58.952Z,2.30
2019-03-05T10:05:28.570Z,3.37
2019-03-05T10:07:58.072Z,2.50
2019-03-05T10:10:31.248Z,2.80
2019-03-05T10:13:04.117Z,2.17
2019-03-05T10:15:32.673Z,1.47
2019-03-05T10:18:12.373Z,1.53
2019-03-05T10:20:36.633Z,1.20
2019-03-05T10:23:06.319Z,1.40
2019-03-05T10:25:35.797Z,1.40
2019-03-05T10:28:06.125Z,1.90
2019-03-05T10:30:42.398Z,1.87
2019-03-05T10:33:13.396Z,2.20
2019-03-05T10:35:42.874Z,1.00
2019-03-05T10:38:12.967Z,1.07
2019-03-05T10:40:52.477Z,1.23
2019-03-05T10:43:21.972Z,1.20
2019-03-05T10:45:51.447Z,0.90
2019-03-05T10:48:26.193Z,0.80
2019-03-05T10:50:55.693Z,0.60
2019-03-05T10:53:25.170Z,0.80
2019-03-05T10:55:54.822Z,0.87
2019-03-05T10:58:33.414Z,1.10
2019-03-05T11:00:57.108Z,1.20
2019-03-05T11:03:29.749Z,0.73
2019-03-05T11:05:59.258Z,0.60
2019-03-05T11:08:28.894Z,0.90
2019-03-05T11:10:58.510Z,0.57
2019-03-05T11:13:31.089Z,0.50
2019-03-05T11:16:04.060Z,0.50
2019-03-05T11:18:33.541Z,0.47
2019-03-05T11:21:03.138Z,0.87
2019-03-05T11:23:32.631Z,0.60
2019-03-05T11:26:02.115Z,0.80
2019-03-05T11:28:31.595Z,0.63
2019-03-05T11:31:01.121Z,0.50
2019-03-05T11:33:30.605Z,0.50
2019-03-05T11:36:00.097Z,0.40
2019-03-05T11:38:29.598Z,0.40
2019-03-05T11:40:59.079Z,0.50
2019-03-05T11:43:28.553Z,0.40
2019-03-05T11:45:58.067Z,0.43
2019-03-05T11:48:27.560Z,0.40
2019-03-05T11:50:56.975Z,0.60
2019-03-05T11:53:26.499Z,0.60
2019-03-05T11:55:55.994Z,0.40
2019-03-05T11:58:25.489Z,0.63
2019-03-05T12:00:56.566Z,0.60
2019-03-05T12:03:34.733Z,1.03
2019-03-05T12:06:04.722Z,0.50
2019-03-05T12:08:34.202Z,0.90
2019-03-05T12:11:03.700Z,1.07
2019-03-05T12:13:33.140Z,0.60
2019-03-05T12:16:02.749Z,0.50
2019-03-05T12:18:32.342Z,0.50
2019-03-05T12:21:01.839Z,0.60
2019-03-05T12:23:31.564Z,0.83
2019-03-05T12:26:01.094Z,0.50
2019-03-05T12:28:30.669Z,0.80
2019-03-05T12:31:00.159Z,0.80
2019-03-05T12:33:29.628Z,0.80
2019-03-05T12:35:59.154Z,0.50
2019-03-05T12:38:28.631Z,0.57
2019-03-05T12:40:58.155Z,0.73
2019-03-05T12:43:27.711Z,0.70
2019-03-05T12:45:57.180Z,0.60
2019-03-05T12:48:26.609Z,0.50
2019-03-05T12:50:56.049Z,0.90
2019-03-05T12:53:25.518Z,0.80
2019-03-05T12:55:55.024Z,1.50
2019-03-05T12:58:24.595Z,1.20
2019-03-05T13:00:54.076Z,1.50
2019-03-05T13:03:23.642Z,1.00
2019-03-05T13:05:53.149Z,0.63
2019-03-05T13:08:22.628Z,1.33
2019-03-05T13:10:52.125Z,1.13
2019-03-05T13:13:21.632Z,1.00
2019-03-05T13:15:52.939Z,1.03
2019-03-05T13:18:22.316Z,1.33
2019-03-05T13:20:51.840Z,1.10
2019-03-05T13:23:21.316Z,0.90
2019-03-05T13:25:50.835Z,1.40
2019-03-05T13:28:20.322Z,1.20
2019-03-05T13:30:49.812Z,1.30
2019-03-05T13:33:19.319Z,0.80
2019-03-05T13:35:48.813Z,1.10
2019-03-05T13:38:18.296Z,0.90
2019-03-05T13:40:47.825Z,1.20
2019-03-05T13:43:17.315Z,0.97
2019-03-05T13:45:49.580Z,0.60
2019-03-05T13:48:23.787Z,0.80
2019-03-05T13:51:06.986Z,0.80
2019-03-05T13:54:09.411Z,0.90
2019-03-05T13:56:44.911Z,0.80
2019-03-05T13:59:37.042Z,0.73
2019-03-05T14:02:08.637Z,1.00
2019-03-05T14:04:42.831Z,0.67
2019-03-05T14:07:25.683Z,0.97
2019-03-05T14:09:55.198Z,0.80
2019-03-05T14:12:24.721Z,1.40
2019-03-05T14:14:54.269Z,3.03
2019-03-05T14:17:25.298Z,0.73
2019-03-05T14:19:55.120Z,2.60
2019-03-05T14:22:24.628Z,1.77
2019-03-05T14:25:02.092Z,0.70
2019-03-05T14:27:25.510Z,0.77
2019-03-05T14:29:55.011Z,1.10
2019-03-05T14:32:24.515Z,0.80
2019-03-05T14:35:00.529Z,0.90
2019-03-05T14:37:30.306Z,1.10
2019-03-05T14:40:22.282Z,0.60
2019-03-05T14:42:30.992Z,0.87
2019-03-05T14:45:00.535Z,0.77
2019-03-05T14:47:30.158Z,0.87
2019-03-05T14:49:59.936Z,1.10
2019-03-05T14:52:29.479Z,1.13
2019-03-05T14:54:59.019Z,0.83
2019-03-05T14:57:28.511Z,1.00
2019-03-05T14:59:58.017Z,1.23
2019-03-05T15:02:27.514Z,0.60
2019-03-05T15:04:57.048Z,0.93
2019-03-05T15:07:26.608Z,1.00
2019-03-05T15:09:56.174Z,0.50
2019-03-05T15:12:25.780Z,0.80
2019-03-05T15:14:55.354Z,0.70
2019-03-05T15:17:24.865Z,0.60
2019-03-05T15:19:54.361Z,0.60
2019-03-05T15:22:24.019Z,0.70
2019-03-05T15:24:53.524Z,1.30
2019-03-05T15:27:23.081Z,0.60
2019-03-05T15:29:52.661Z,0.50
2019-03-05T15:32:22.173Z,0.50
2019-03-05T15:34:51.680Z,0.40
2019-03-05T15:37:21.211Z,0.53
2019-03-05T15:39:50.699Z,0.50
2019-03-05T15:42:20.207Z,2.30
2019-03-05T15:44:49.784Z,0.90
2019-03-05T15:47:19.271Z,1.77
2019-03-05T15:49:48.956Z,0.70
2019-03-05T15:52:18.472Z,0.60
2019-03-05T15:54:47.998Z,0.50
2019-03-05T15:57:25.904Z,0.90
2019-03-05T15:59:48.856Z,0.53
2019-03-05T16:02:18.358Z,0.50
2019-03-05T16:04:47.863Z,0.67
2019-03-05T16:07:17.381Z,1.53
2019-03-05T16:09:46.995Z,0.50
2019-03-05T16:12:16.479Z,1.97
2019-03-05T16:14:47.508Z,1.93
2019-03-05T16:17:18.621Z,0.80
2019-03-05T16:19:49.068Z,0.60
2019-03-05T16:22:19.362Z,0.70
2019-03-05T16:24:48.970Z,0.67
2019-03-05T16:27:18.453Z,0.73
2019-03-05T16:29:47.982Z,0.63
2019-03-05T16:32:28.181Z,0.73
2019-03-05T16:35:18.516Z,0.70
2019-03-05T16:37:53.046Z,0.60
2019-03-05T16:40:24.106Z,0.90
2019-03-05T16:42:55.164Z,2.00
2019-03-05T16:45:28.959Z,3.17
2019-03-05T16:48:06.155Z,1.30
2019-03-05T16:50:49.576Z,1.03
2019-03-05T16:53:23.621Z,1.40
2019-03-05T16:55:54.871Z,1.67
2019-03-05T16:58:26.147Z,1.60
2019-03-05T17:00:57.216Z,1.37
2019-03-05T17:03:28.270Z,2.40
2019-03-05T17:06:02.091Z,4.20
2019-03-05T17:08:42.467Z,3.10
2019-03-05T17:11:22.903Z,2.20
2019-03-05T17:13:52.392Z,3.30
2019-03-05T17:16:21.889Z,2.87
2019-03-05T17:18:51.423Z,1.90
2019-03-05T17:21:27.446Z,2.13
2019-03-05T17:23:52.053Z,1.87
2019-03-05T17:26:21.664Z,2.50
2019-03-05T17:28:51.333Z,2.30
2019-03-05T17:31:20.866Z,2.33
2019-03-05T17:33:50.389Z,2.90
2019-03-05T17:36:19.881Z,2.33
2019-03-05T17:38:49.400Z,2.23
2019-03-05T17:41:19.009Z,2.20
2019-03-05T17:43:48.517Z,1.97
2019-03-05T17:46:18.027Z,2.40
2019-03-05T17:48:48.275Z,3.33
2019-03-05T17:51:18.163Z,4.80
2019-03-05T17:53:47.700Z,4.37
2019-03-05T17:56:17.250Z,5.87
2019-03-05T17:58:46.753Z,4.27
2019-03-05T18:01:16.275Z,3.90
2019-03-05T18:03:45.903Z,3.47
2019-03-05T18:06:15.434Z,2.97
2019-03-05T18:08:44.917Z,4.27
2019-03-05T18:11:14.477Z,3.07
2019-03-05T18:13:43.998Z,4.00
2019-03-05T18:16:13.493Z,4.60
2019-03-05T18:18:42.993Z,4.10
2019-03-05T18:21:12.510Z,7.20
2019-03-05T18:23:42.006Z,5.30
2019-03-05T18:26:11.865Z,3.90
2019-03-05T18:28:41.383Z,3.40
2019-03-05T18:31:10.993Z,4.23
2019-03-05T18:33:40.465Z,4.03
2019-03-05T18:36:09.972Z,4.77
2019-03-05T18:38:39.484Z,4.50
2019-03-05T18:41:08.988Z,4.50
2019-03-05T18:43:38.653Z,5.10
2019-03-05T18:46:08.154Z,6.03
2019-03-05T18:48:37.643Z,5.20
2019-03-05T18:51:07.263Z,6.90
2019-03-05T18:53:36.770Z,9.10
2019-03-05T18:56:06.267Z,5.80
2019-03-05T18:58:35.787Z,4.43
2019-03-05T19:01:05.354Z,4.73
2019-03-05T19:03:34.847Z,4.60
2019-03-05T19:06:04.351Z,4.47
2019-03-05T19:08:33.849Z,6.00
2019-03-05T19:11:03.353Z,7.20
2019-03-05T19:13:33.143Z,7.83
2019-03-05T19:16:02.736Z,5.10
2019-03-05T19:18:32.236Z,6.90
2019-03-05T19:21:01.746Z,4.80
2019-03-05T19:23:31.245Z,4.93
2019-03-05T19:26:00.744Z,5.13
2019-03-05T19:28:30.262Z,5.50
2019-03-05T19:30:59.763Z,5.57
2019-03-05T19:33:29.232Z,7.00
2019-03-05T19:35:58.764Z,4.33
2019-03-05T19:38:28.236Z,4.33
2019-03-05T19:40:57.729Z,3.57
2019-03-05T19:43:27.235Z,3.13
2019-03-05T19:45:56.725Z,2.80
2019-03-05T19:48:26.200Z,2.90
2019-03-05T19:50:55.716Z,2.90
2019-03-05T19:53:25.304Z,3.50
2019-03-05T19:55:54.809Z,3.37
2019-03-05T19:58:24.319Z,3.53
2019-03-05T20:01:04.826Z,3.47
2019-03-05T20:03:34.384Z,3.43
2019-03-05T20:06:04.182Z,3.13
2019-03-05T20:08:40.023Z,3.27
2019-03-05T20:11:04.907Z,2.67
2019-03-05T20:13:34.384Z,3.10
2019-03-05T20:16:05.174Z,3.63
2019-03-05T20:18:34.749Z,3.33
2019-03-05T20:21:04.260Z,3.10
2019-03-05T20:23:34.997Z,2.77
2019-03-05T20:26:04.733Z,3.20
2019-03-05T20:28:35.817Z,7.10
2019-03-05T20:31:05.599Z,4.10
2019-03-05T20:33:35.552Z,8.57
2019-03-05T20:36:05.242Z,7.77
2019-03-05T20:38:35.637Z,3.90
2019-03-05T20:41:05.260Z,12.20
2019-03-05T20:43:34.745Z,9.90
2019-03-05T20:46:12.590Z,4.30
2019-03-05T20:48:42.142Z,3.07
2019-03-05T20:51:11.646Z,3.20
2019-03-05T20:53:41.224Z,3.90
2019-03-05T20:56:11.088Z,3.30
2019-03-05T20:58:40.693Z,3.60
2019-03-05T21:01:10.742Z,2.80
2019-03-05T21:03:40.227Z,3.10
2019-03-05T21:06:09.723Z,2.73
2019-03-05T21:08:39.523Z,2.70
2019-03-05T21:11:09.011Z,2.60
2019-03-05T21:13:38.497Z,4.43
2019-03-05T21:16:08.022Z,3.30
2019-03-05T21:18:37.510Z,3.27
2019-03-05T21:21:07.079Z,3.80
2019-03-05T21:23:36.611Z,3.57
2019-03-05T21:26:06.173Z,3.20
2019-03-05T21:28:35.701Z,3.43
2019-03-05T21:31:05.217Z,3.60
2019-03-05T21:33:34.690Z,4.40
2019-03-05T21:36:04.178Z,4.20
2019-03-05T21:38:33.793Z,3.60
2019-03-05T21:41:03.278Z,3.63
2019-03-05T21:43:33.144Z,4.20
2019-03-05T21:46:07.331Z,3.83
2019-03-05T21:48:36.837Z,4.10
2019-03-05T21:51:06.323Z,4.20
2019-03-05T21:53:35.833Z,4.27
2019-03-05T21:56:05.310Z,3.70
2019-03-05T21:58:34.796Z,4.40
2019-03-05T22:01:04.305Z,3.70
2019-03-05T22:03:33.896Z,3.83
2019-03-05T22:06:03.807Z,4.03
2019-03-05T22:08:33.351Z,3.90
2019-03-05T22:11:02.840Z,3.70
2019-03-05T22:13:32.315Z,4.03
2019-03-05T22:16:01.834Z,4.47
2019-03-05T22:18:31.509Z,4.07
2019-03-05T22:21:01.050Z,3.93
2019-03-05T22:23:30.561Z,4.10
2019-03-05T22:26:00.062Z,3.93
2019-03-05T22:28:29.570Z,4.20
2019-03-05T22:30:59.079Z,4.17
2019-03-05T22:33:28.568Z,4.10
2019-03-05T22:35:58.043Z,4.50
2019-03-05T22:38:27.553Z,4.87
2019-03-05T22:40:57.027Z,4.40
2019-03-05T22:43:26.520Z,4.97
2019-03-05T22:45:56.106Z,5.90
2019-03-05T22:48:25.578Z,5.43
2019-03-05T22:50:55.054Z,4.50
2019-03-05T22:53:24.564Z,3.90
2019-03-05T22:55:54.047Z,3.97
2019-03-05T22:58:23.531Z,4.27
2019-03-05T23:00:59.484Z,3.50
2019-03-05T23:03:31.352Z,5.00
2019-03-05T23:06:04.478Z,4.50
2019-03-05T23:08:33.993Z,3.73
2019-03-05T23:11:03.518Z,4.07
2019-03-05T23:13:33.317Z,3.97
2019-03-05T23:16:02.799Z,4.30
2019-03-05T23:18:32.479Z,4.83
2019-03-05T23:21:03.566Z,4.60
2019-03-05T23:23:33.110Z,5.50
2019-03-05T23:26:02.889Z,5.47
2019-03-05T23:28:32.425Z,5.27
2019-03-05T23:31:01.914Z,5.27
2019-03-05T23:33:31.380Z,4.67
2019-03-05T23:36:00.916Z,5.20
2019-03-05T23:38:30.393Z,4.77
2019-03-05T23:40:59.871Z,4.63
2019-03-05T23:43:29.398Z,4.43
2019-03-05T23:45:58.884Z,4.53
2019-03-05T23:48:28.359Z,3.43
2019-03-05T23:50:58.142Z,3.80
2019-03-05T23:53:27.536Z,3.60
2019-03-05T23:55:57.020Z,3.87
2019-03-05T23:58:26.524Z,3.97
